createdAt,value
2019-02-24T00:00:54.254Z,8.97
2019-02-24T00:03:24.702Z,10.60
2019-02-24T00:05:54.685Z,9.93
2019-02-24T00:08:24.741Z,11.07
2019-02-24T00:10:56.238Z,9.37
2019-02-24T00:13:26.286Z,10.50
2019-02-24T00:15:56.597Z,9.70
2019-02-24T00:18:27.049Z,11.10
2019-02-24T00:20:57.832Z,11.20
2019-02-24T00:23:28.014Z,11.00
2019-02-24T00:25:58.227Z,10.13
2019-02-24T00:28:28.560Z,10.40
2019-02-24T00:30:58.729Z,9.60
2019-02-24T00:33:28.790Z,8.83
2019-02-24T00:35:58.958Z,9.80
2019-02-24T00:38:28.960Z,9.30
2019-02-24T00:40:59.428Z,10.60
2019-02-24T00:43:29.943Z,10.77
2019-02-24T00:46:00.210Z,11.87
2019-02-24T00:48:30.565Z,11.47
2019-02-24T00:51:00.912Z,11.03
2019-02-24T00:53:32.565Z,11.10
2019-02-24T00:56:03.050Z,12.03
2019-02-24T00:58:33.235Z,10.80
2019-02-24T01:01:03.483Z,11.50
2019-02-24T01:03:33.708Z,10.67
2019-02-24T01:06:03.735Z,10.43
2019-02-24T01:08:33.880Z,11.97
2019-02-24T01:11:03.945Z,12.00
2019-02-24T01:13:34.234Z,9.30
2019-02-24T01:16:04.138Z,10.33
2019-02-24T01:18:34.234Z,10.00
2019-02-24T01:21:04.479Z,9.00
2019-02-24T01:23:34.569Z,8.93
2019-02-24T01:26:05.175Z,8.97
2019-02-24T01:28:36.082Z,10.27
2019-02-24T01:31:06.284Z,10.47
2019-02-24T01:33:36.349Z,12.57
2019-02-24T01:36:07.123Z,13.20
2019-02-24T01:38:37.787Z,11.97
2019-02-24T01:41:08.247Z,10.60
2019-02-24T01:43:38.446Z,11.50
2019-02-24T01:46:08.825Z,12.83
2019-02-24T01:48:39.532Z,12.40
2019-02-24T01:51:09.774Z,12.23
2019-02-24T01:53:41.226Z,12.60
2019-02-24T01:56:11.570Z,10.50
2019-02-24T01:58:41.775Z,11.70
2019-02-24T02:01:12.019Z,11.63
2019-02-24T02:03:42.276Z,11.10
2019-02-24T02:06:12.844Z,10.63
2019-02-24T02:08:43.098Z,11.20
2019-02-24T02:11:13.927Z,11.30
2019-02-24T02:13:44.187Z,12.77
2019-02-24T02:16:16.169Z,12.57
2019-02-24T02:18:46.967Z,11.13
2019-02-24T02:21:17.169Z,11.53
2019-02-24T02:23:47.877Z,11.07
2019-02-24T02:26:18.344Z,12.23
2019-02-24T02:28:48.480Z,13.40
2019-02-24T02:31:19.131Z,11.10
2019-02-24T02:33:49.515Z,12.80
2019-02-24T02:36:20.641Z,14.20
2019-02-24T02:38:51.712Z,12.70
2019-02-24T02:41:22.622Z,12.97
2019-02-24T02:43:52.914Z,12.50
2019-02-24T02:46:24.039Z,11.83
2019-02-24T02:48:54.490Z,10.30
2019-02-24T02:51:24.997Z,11.30
2019-02-24T02:53:55.463Z,12.90
2019-02-24T02:56:25.980Z,11.97
2019-02-24T02:58:55.961Z,12.97
2019-02-24T03:01:26.662Z,10.20
2019-02-24T03:03:57.556Z,11.80
2019-02-24T03:06:29.326Z,12.17
2019-02-24T03:08:59.303Z,12.37
2019-02-24T03:11:30.088Z,10.60
2019-02-24T03:14:00.483Z,12.87
2019-02-24T03:16:31.149Z,11.30
2019-02-24T03:19:01.660Z,10.73
2019-02-24T03:21:31.878Z,12.33
2019-02-24T03:24:02.036Z,12.10
2019-02-24T03:26:32.457Z,12.50
2019-02-24T03:29:04.334Z,11.17
2019-02-24T03:31:34.748Z,12.00
2019-02-24T03:34:05.235Z,9.37
2019-02-24T03:36:35.415Z,9.70
2019-02-24T03:39:06.598Z,9.20
2019-02-24T03:41:37.348Z,10.10
2019-02-24T03:44:07.429Z,10.97
2019-02-24T03:46:39.296Z,10.40
2019-02-24T03:49:09.311Z,10.70
2019-02-24T03:51:39.622Z,10.60
2019-02-24T03:54:10.172Z,11.00
2019-02-24T03:56:40.729Z,9.90
2019-02-24T03:59:15.186Z,9.30
2019-02-24T04:01:43.132Z,10.30
2019-02-24T04:04:13.466Z,9.13
2019-02-24T04:06:43.516Z,10.03
2019-02-24T04:09:13.798Z,9.97
2019-02-24T04:11:43.968Z,9.50
2019-02-24T04:14:13.995Z,10.13
2019-02-24T04:16:44.417Z,8.83
2019-02-24T04:19:14.932Z,9.77
2019-02-24T04:21:45.763Z,11.03
2019-02-24T04:24:16.016Z,9.53
2019-02-24T04:26:46.450Z,9.80
2019-02-24T04:29:24.485Z,9.93
2019-02-24T04:31:48.421Z,9.87
2019-02-24T04:34:18.630Z,11.30
2019-02-24T04:36:48.943Z,10.70
2019-02-24T04:39:20.033Z,9.70
2019-02-24T04:41:50.136Z,9.83
2019-02-24T04:44:20.410Z,10.70
2019-02-24T04:46:50.304Z,11.10
2019-02-24T04:49:20.362Z,10.27
2019-02-24T04:51:50.310Z,10.60
2019-02-24T04:54:20.723Z,11.23
2019-02-24T04:56:50.758Z,11.23
2019-02-24T04:59:20.956Z,10.03
2019-02-24T05:01:51.590Z,10.43
2019-02-24T05:04:21.652Z,10.90
2019-02-24T05:06:52.591Z,10.03
2019-02-24T05:09:22.859Z,10.80
2019-02-24T05:11:53.353Z,10.33
2019-02-24T05:14:24.145Z,30.10
2019-02-24T05:16:54.920Z,11.33
2019-02-24T05:19:25.436Z,10.87
2019-02-24T05:21:55.717Z,10.63
2019-02-24T05:24:26.014Z,10.17
2019-02-24T05:26:56.095Z,10.60
2019-02-24T05:29:26.247Z,10.90
2019-02-24T05:31:56.829Z,10.27
2019-02-24T05:34:27.116Z,11.07
2019-02-24T05:36:57.086Z,10.80
2019-02-24T05:39:27.377Z,10.10
2019-02-24T05:41:57.544Z,10.50
2019-02-24T05:44:27.542Z,11.43
2019-02-24T05:46:57.960Z,10.93
2019-02-24T05:49:28.198Z,12.70
2019-02-24T05:51:58.559Z,11.83
2019-02-24T05:54:29.134Z,11.30
2019-02-24T05:56:59.341Z,11.00
2019-02-24T05:59:30.963Z,10.47
2019-02-24T06:02:01.605Z,11.70
2019-02-24T06:04:32.082Z,10.93
2019-02-24T06:07:03.257Z,11.57
2019-02-24T06:09:33.733Z,10.80
2019-02-24T06:12:04.030Z,11.43
2019-02-24T06:14:34.145Z,10.77
2019-02-24T06:17:05.346Z,11.90
2019-02-24T06:19:35.490Z,11.80
2019-02-24T06:22:05.890Z,10.20
2019-02-24T06:24:36.344Z,10.17
2019-02-24T06:27:06.800Z,12.53
2019-02-24T06:29:37.203Z,11.60
2019-02-24T06:32:07.903Z,11.27
2019-02-24T06:34:38.245Z,12.30
2019-02-24T06:37:08.738Z,12.03
2019-02-24T06:39:39.239Z,12.20
2019-02-24T06:42:11.400Z,11.40
2019-02-24T06:44:41.943Z,12.10
2019-02-24T06:47:12.141Z,11.50
2019-02-24T06:49:43.216Z,11.60
2019-02-24T06:52:13.558Z,10.83
2019-02-24T06:54:44.193Z,11.50
2019-02-24T06:57:14.611Z,11.43
2019-02-24T06:59:45.098Z,11.77
2019-02-24T07:02:15.444Z,11.73
2019-02-24T07:04:46.416Z,11.47
2019-02-24T07:07:16.778Z,11.80
2019-02-24T07:09:47.185Z,12.00
2019-02-24T07:12:17.481Z,11.10
2019-02-24T07:14:48.474Z,12.40
2019-02-24T07:17:18.857Z,11.83
2019-02-24T07:19:49.088Z,11.60
2019-02-24T07:22:19.030Z,11.47
2019-02-24T07:24:49.054Z,11.57
2019-02-24T07:27:19.358Z,11.70
2019-02-24T07:29:49.479Z,10.30
2019-02-24T07:32:20.398Z,11.47
2019-02-24T07:34:50.546Z,9.73
2019-02-24T07:37:21.423Z,12.40
2019-02-24T07:39:51.548Z,10.63
2019-02-24T07:42:21.827Z,11.33
2019-02-24T07:44:52.252Z,12.50
2019-02-24T07:47:22.322Z,11.90
2019-02-24T07:49:53.292Z,12.27
2019-02-24T07:52:25.538Z,12.70
2019-02-24T07:54:55.787Z,12.07
2019-02-24T07:57:26.241Z,11.20
2019-02-24T07:59:57.397Z,11.60
2019-02-24T08:02:27.327Z,12.77
2019-02-24T08:04:57.759Z,12.80
2019-02-24T08:07:30.102Z,13.27
2019-02-24T08:10:06.283Z,12.53
2019-02-24T08:12:36.589Z,11.37
2019-02-24T08:15:09.028Z,12.60
2019-02-24T08:17:39.216Z,13.00
2019-02-24T08:20:28.917Z,13.17
2019-02-24T08:23:00.100Z,11.50
2019-02-24T08:25:30.536Z,12.90
2019-02-24T08:28:00.643Z,11.13
2019-02-24T08:30:40.981Z,11.10
2019-02-24T08:33:03.910Z,11.30
2019-02-24T08:35:36.173Z,14.27
2019-02-24T08:38:07.482Z,13.87
2019-02-24T08:40:37.944Z,13.77
2019-02-24T08:43:08.730Z,13.63
2019-02-24T08:45:39.175Z,13.30
2019-02-24T08:48:15.406Z,13.00
2019-02-24T08:50:45.988Z,13.77
2019-02-24T08:53:16.165Z,14.00
2019-02-24T08:55:46.265Z,14.00
2019-02-24T08:58:16.845Z,13.40
2019-02-24T09:00:52.159Z,14.43
2019-02-24T09:03:22.725Z,13.57
2019-02-24T09:05:53.704Z,12.63
2019-02-24T09:08:24.058Z,13.90
2019-02-24T09:10:54.872Z,13.70
2019-02-24T09:13:25.153Z,13.53
2019-02-24T09:15:55.606Z,12.67
2019-02-24T09:18:34.985Z,13.57
2019-02-24T09:21:05.508Z,13.57
2019-02-24T09:23:37.182Z,12.97
2019-02-24T09:26:08.161Z,11.37
2019-02-24T09:28:38.543Z,11.10
2019-02-24T09:31:12.313Z,12.10
2019-02-24T09:33:42.704Z,12.33
2019-02-24T09:36:13.053Z,13.40
2019-02-24T09:38:43.327Z,13.43
2019-02-24T09:41:14.853Z,13.53
2019-02-24T09:43:45.249Z,14.80
2019-02-24T09:46:15.622Z,13.37
2019-02-24T09:48:45.721Z,11.50
2019-02-24T09:51:16.076Z,10.43
2019-02-24T09:53:46.937Z,11.67
2019-02-24T09:56:17.953Z,13.37
2019-02-24T09:58:50.451Z,15.10
2019-02-24T10:01:21.323Z,14.10
2019-02-24T10:03:51.780Z,12.30
2019-02-24T10:06:22.271Z,14.13
2019-02-24T10:08:54.462Z,14.90
2019-02-24T10:11:25.195Z,15.10
2019-02-24T10:13:55.968Z,14.00
2019-02-24T10:16:28.034Z,12.27
2019-02-24T10:18:58.533Z,12.53
2019-02-24T10:21:28.767Z,13.43
2019-02-24T10:23:59.091Z,11.10
2019-02-24T10:26:29.704Z,11.20
2019-02-24T10:29:00.314Z,12.17
2019-02-24T10:31:30.696Z,13.57
2019-02-24T10:34:01.496Z,12.20
2019-02-24T10:36:31.720Z,12.07
2019-02-24T10:39:02.370Z,10.40
2019-02-24T10:41:33.674Z,11.83
2019-02-24T10:44:04.271Z,12.10
2019-02-24T10:46:34.891Z,11.20
2019-02-24T10:49:05.407Z,12.23
2019-02-24T10:51:35.542Z,11.30
2019-02-24T10:54:05.773Z,11.10
2019-02-24T10:56:35.951Z,11.07
2019-02-24T10:59:06.466Z,11.70
2019-02-24T11:01:36.906Z,9.47
2019-02-24T11:04:07.375Z,11.10
2019-02-24T11:06:37.927Z,12.20
2019-02-24T11:09:09.299Z,11.53
2019-02-24T11:11:40.187Z,20.48
2019-02-24T11:14:10.962Z,12.03
2019-02-24T11:16:41.782Z,12.53
2019-02-24T11:19:11.782Z,12.10
2019-02-24T11:21:42.042Z,11.17
2019-02-24T11:24:12.319Z,11.30
2019-02-24T11:26:42.869Z,11.47
2019-02-24T11:29:13.058Z,11.43
2019-02-24T11:31:43.192Z,11.83
2019-02-24T11:34:13.461Z,11.33
2019-02-24T11:36:43.518Z,11.00
2019-02-24T11:39:13.763Z,9.10
2019-02-24T11:41:43.930Z,8.50
2019-02-24T11:44:14.106Z,8.07
2019-02-24T11:46:45.636Z,7.93
2019-02-24T11:49:15.937Z,7.20
2019-02-24T11:51:48.246Z,7.47
2019-02-24T11:54:18.701Z,6.87
2019-02-24T11:56:49.350Z,7.70
2019-02-24T11:59:19.619Z,6.47
2019-02-24T12:01:50.041Z,6.83
2019-02-24T12:04:20.917Z,6.80
2019-02-24T12:06:51.388Z,6.03
2019-02-24T12:09:21.967Z,6.50
2019-02-24T12:11:53.608Z,6.67
2019-02-24T12:14:24.065Z,7.40
2019-02-24T12:16:54.696Z,7.13
2019-02-24T12:19:25.233Z,6.50
2019-02-24T12:21:56.654Z,5.30
2019-02-24T12:24:27.198Z,5.70
2019-02-24T12:26:59.837Z,5.93
2019-02-24T12:29:30.419Z,6.17
2019-02-24T12:32:00.955Z,5.80
2019-02-24T12:34:31.447Z,5.03
2019-02-24T12:37:01.626Z,4.80
2019-02-24T12:39:32.660Z,4.77
2019-02-24T12:42:03.532Z,5.27
2019-02-24T12:44:34.068Z,6.10
2019-02-24T12:47:05.453Z,5.77
2019-02-24T12:49:36.220Z,5.67
2019-02-24T12:52:06.857Z,5.27
2019-02-24T12:54:37.308Z,5.27
2019-02-24T12:57:07.845Z,6.00
2019-02-24T12:59:38.406Z,6.10
2019-02-24T13:02:09.752Z,6.30
2019-02-24T13:04:40.098Z,6.37
2019-02-24T13:07:10.722Z,6.90
2019-02-24T13:09:41.824Z,6.17
2019-02-24T13:12:12.392Z,4.70
2019-02-24T13:14:43.499Z,6.10
2019-02-24T13:17:13.997Z,7.60
2019-02-24T13:19:44.520Z,6.50
2019-02-24T13:22:14.794Z,7.30
2019-02-24T13:24:45.821Z,7.47
2019-02-24T13:27:16.594Z,7.20
2019-02-24T13:29:47.046Z,7.13
2019-02-24T13:32:17.126Z,6.90
2019-02-24T13:34:48.096Z,6.63
2019-02-24T13:37:18.744Z,7.33
2019-02-24T13:39:48.818Z,6.60
2019-02-24T13:42:19.972Z,7.23
2019-02-24T13:44:50.567Z,6.10
2019-02-24T13:47:20.877Z,6.57
2019-02-24T13:49:51.644Z,7.13
2019-02-24T13:52:22.049Z,7.20
2019-02-24T13:54:52.228Z,7.10
2019-02-24T13:57:22.654Z,7.50
2019-02-24T13:59:53.914Z,5.90
2019-02-24T14:02:24.521Z,5.30
2019-02-24T14:04:55.257Z,5.20
2019-02-24T14:07:25.412Z,7.67
2019-02-24T14:09:55.999Z,7.53
2019-02-24T14:12:27.423Z,7.40
2019-02-24T14:14:57.570Z,7.57
2019-02-24T14:17:27.919Z,7.00
2019-02-24T14:19:59.897Z,6.83
2019-02-24T14:22:30.312Z,7.57
2019-02-24T14:25:00.552Z,7.47
2019-02-24T14:27:31.495Z,7.53
2019-02-24T14:30:02.721Z,7.33
2019-02-24T14:32:33.485Z,7.00
2019-02-24T14:35:04.184Z,6.87
2019-02-24T14:37:34.557Z,7.60
2019-02-24T14:40:06.202Z,6.87
2019-02-24T14:42:36.224Z,6.77
2019-02-24T14:45:09.618Z,7.20
2019-02-24T14:47:40.447Z,6.97
2019-02-24T14:50:12.650Z,6.70
2019-02-24T14:52:43.941Z,6.27
2019-02-24T14:55:15.623Z,5.70
2019-02-24T14:57:46.115Z,5.60
2019-02-24T15:00:24.316Z,5.60
2019-02-24T15:02:55.002Z,5.40
2019-02-24T15:05:25.606Z,6.17
2019-02-24T15:07:56.338Z,5.40
2019-02-24T15:10:27.147Z,5.17
2019-02-24T15:12:57.918Z,5.87
2019-02-24T15:15:33.558Z,5.70
2019-02-24T15:18:03.843Z,5.73
2019-02-24T15:20:34.302Z,5.70
2019-02-24T15:23:06.524Z,5.50
2019-02-24T15:25:36.300Z,5.13
2019-02-24T15:28:07.073Z,5.67
2019-02-24T15:30:38.601Z,5.10
2019-02-24T15:33:09.504Z,5.60
2019-02-24T15:35:40.671Z,4.63
2019-02-24T15:38:11.562Z,5.77
2019-02-24T15:40:42.435Z,5.50
2019-02-24T15:43:14.578Z,5.60
2019-02-24T15:45:45.664Z,5.00
2019-02-24T15:48:16.424Z,4.80
2019-02-24T15:50:47.115Z,4.77
2019-02-24T15:53:18.384Z,4.47
2019-02-24T15:55:49.496Z,4.87
2019-02-24T15:58:20.289Z,4.77
2019-02-24T16:00:50.676Z,4.63
2019-02-24T16:03:21.070Z,4.60
2019-02-24T16:05:51.406Z,4.87
2019-02-24T16:08:21.868Z,5.27
2019-02-24T16:10:52.384Z,4.53
2019-02-24T16:13:22.719Z,4.97
2019-02-24T16:15:53.282Z,5.30
2019-02-24T16:18:23.643Z,4.60
2019-02-24T16:20:54.148Z,4.37
2019-02-24T16:23:24.141Z,4.70
2019-02-24T16:25:54.323Z,5.23
2019-02-24T16:28:25.362Z,4.80
2019-02-24T16:30:55.839Z,4.43
2019-02-24T16:33:26.620Z,4.73
2019-02-24T16:35:57.071Z,4.50
2019-02-24T16:38:27.533Z,4.57
2019-02-24T16:40:58.576Z,5.10
2019-02-24T16:43:28.799Z,4.90
2019-02-24T16:45:59.355Z,5.30
2019-02-24T16:48:29.664Z,4.33
2019-02-24T16:51:00.180Z,4.90
2019-02-24T16:53:30.615Z,4.50
2019-02-24T16:56:01.723Z,5.63
2019-02-24T16:58:32.505Z,4.43
2019-02-24T17:01:03.226Z,4.63
2019-02-24T17:03:34.490Z,4.80
2019-02-24T17:06:06.762Z,4.17
2019-02-24T17:08:37.907Z,4.47
2019-02-24T17:11:08.207Z,6.00
2019-02-24T17:13:38.771Z,3.87
2019-02-24T17:16:09.122Z,5.53
2019-02-24T17:18:39.844Z,5.63
2019-02-24T17:21:10.077Z,5.80
2019-02-24T17:23:49.560Z,5.20
2019-02-24T17:26:12.935Z,6.10
2019-02-24T17:28:43.925Z,6.13
2019-02-24T17:31:14.866Z,5.57
2019-02-24T17:33:45.263Z,6.10
2019-02-24T17:36:15.981Z,5.00
2019-02-24T17:38:46.263Z,5.83
2019-02-24T17:41:16.448Z,5.10
2019-02-24T17:43:47.159Z,4.43
2019-02-24T17:46:18.432Z,5.97
2019-02-24T17:48:48.701Z,6.37
2019-02-24T17:51:21.440Z,6.30
2019-02-24T17:53:51.245Z,6.03
2019-02-24T17:56:21.989Z,6.70
2019-02-24T17:58:52.526Z,9.13
2019-02-24T18:01:23.591Z,7.50
2019-02-24T18:03:54.613Z,6.20
2019-02-24T18:06:25.490Z,6.20
2019-02-24T18:08:56.072Z,6.17
2019-02-24T18:11:27.001Z,6.00
2019-02-24T18:13:58.468Z,7.47
2019-02-24T18:16:29.122Z,6.50
2019-02-24T18:18:59.713Z,6.80
2019-02-24T18:21:30.476Z,6.80
2019-02-24T18:24:00.977Z,6.33
2019-02-24T18:26:31.224Z,5.20
2019-02-24T18:29:02.312Z,6.47
2019-02-24T18:31:33.272Z,7.30
2019-02-24T18:34:04.700Z,8.20
2019-02-24T18:36:35.191Z,6.10
2019-02-24T18:39:06.899Z,7.10
2019-02-24T18:41:38.126Z,7.00
2019-02-24T18:44:08.688Z,7.73
2019-02-24T18:46:39.596Z,7.10
2019-02-24T18:49:10.626Z,7.97
2019-02-24T18:51:41.143Z,8.70
2019-02-24T18:54:12.243Z,7.60
2019-02-24T18:56:42.999Z,8.20
2019-02-24T18:59:15.027Z,6.37
2019-02-24T19:01:45.868Z,7.13
2019-02-24T19:04:17.045Z,7.60
2019-02-24T19:06:47.641Z,7.80
2019-02-24T19:09:18.758Z,6.80
2019-02-24T19:11:49.865Z,5.73
2019-02-24T19:14:20.443Z,10.17
2019-02-24T19:16:51.419Z,7.00
2019-02-24T19:19:25.789Z,6.47
2019-02-24T19:21:56.840Z,6.40
2019-02-24T19:24:27.512Z,6.10
2019-02-24T19:27:00.639Z,6.37
2019-02-24T19:29:31.849Z,8.50
2019-02-24T19:32:05.531Z,8.27
2019-02-24T19:34:36.250Z,8.90
2019-02-24T19:37:11.619Z,7.70
2019-02-24T19:39:44.023Z,7.77
2019-02-24T19:42:14.578Z,8.50
2019-02-24T19:44:45.022Z,8.60
2019-02-24T19:47:15.537Z,9.30
2019-02-24T19:49:47.579Z,11.00
2019-02-24T19:52:18.103Z,10.70
2019-02-24T19:54:51.606Z,10.37
2019-02-24T19:57:22.506Z,10.40
2019-02-24T19:59:53.702Z,14.03
2019-02-24T20:02:24.946Z,9.53
2019-02-24T20:04:55.945Z,10.40
2019-02-24T20:07:27.221Z,9.63
2019-02-24T20:09:57.935Z,10.73
2019-02-24T20:12:28.824Z,10.50
2019-02-24T20:14:59.986Z,10.90
2019-02-24T20:17:33.499Z,9.73
2019-02-24T20:20:08.073Z,10.03
2019-02-24T20:22:48.464Z,10.80
2019-02-24T20:25:33.250Z,10.60
2019-02-24T20:28:04.780Z,11.30
2019-02-24T20:30:39.467Z,10.40
2019-02-24T20:33:09.852Z,11.00
2019-02-24T20:35:40.356Z,10.27
2019-02-24T20:38:10.650Z,10.37
2019-02-24T20:40:41.048Z,11.43
2019-02-24T20:43:11.969Z,11.30
2019-02-24T20:45:44.458Z,11.47
2019-02-24T20:48:16.089Z,10.37
2019-02-24T20:50:46.741Z,10.90
2019-02-24T20:53:16.909Z,11.10
2019-02-24T20:55:46.948Z,10.37
2019-02-24T20:58:19.128Z,9.97
2019-02-24T21:01:08.818Z,10.60
2019-02-24T21:03:29.977Z,10.60
2019-02-24T21:06:02.072Z,10.70
2019-02-24T21:08:34.069Z,10.67
2019-02-24T21:11:06.926Z,11.30
2019-02-24T21:13:41.152Z,11.67
2019-02-24T21:16:13.653Z,10.80
2019-02-24T21:18:45.643Z,11.80
2019-02-24T21:21:16.023Z,10.87
2019-02-24T21:23:46.725Z,11.00
2019-02-24T21:26:19.445Z,11.87
2019-02-24T21:28:50.057Z,11.53
2019-02-24T21:31:20.234Z,12.27
2019-02-24T21:33:51.011Z,12.57
2019-02-24T21:36:21.500Z,11.03
2019-02-24T21:38:52.959Z,12.40
2019-02-24T21:41:23.368Z,12.10
2019-02-24T21:43:54.900Z,12.13
2019-02-24T21:46:26.559Z,12.13
2019-02-24T21:48:58.508Z,12.27
2019-02-24T21:51:30.163Z,14.17
2019-02-24T21:54:07.164Z,11.20
2019-02-24T21:56:39.212Z,11.90
2019-02-24T21:59:11.192Z,11.30
2019-02-24T22:01:41.800Z,11.67
2019-02-24T22:04:12.325Z,10.10
2019-02-24T22:06:44.525Z,11.60
2019-02-24T22:09:15.184Z,11.60
2019-02-24T22:11:57.031Z,11.37
2019-02-24T22:17:34.107Z,11.90
2019-02-24T22:20:06.406Z,12.10
2019-02-24T22:26:00.436Z,12.10
2019-02-24T22:28:30.951Z,48.23
2019-02-24T22:31:01.575Z,12.93
2019-02-24T22:33:31.784Z,16.70
2019-02-24T22:36:02.027Z,14.10
2019-02-24T22:38:32.545Z,14.53
2019-02-24T22:41:04.269Z,13.47
2019-02-24T22:43:36.050Z,12.70
2019-02-24T22:46:07.754Z,12.03
2019-02-24T22:48:37.944Z,11.87
2019-02-24T22:51:07.864Z,11.30
2019-02-24T22:53:37.887Z,12.90
2019-02-24T22:56:08.182Z,15.97
2019-02-24T22:58:38.756Z,11.30
2019-02-24T23:01:11.171Z,12.77
2019-02-24T23:03:41.295Z,13.13
2019-02-24T23:06:11.570Z,11.83
2019-02-24T23:08:42.156Z,12.40
2019-02-24T23:11:13.808Z,12.80
2019-02-24T23:13:44.671Z,13.80
2019-02-24T23:16:15.270Z,12.67
2019-02-24T23:18:45.345Z,12.10
2019-02-24T23:21:16.159Z,10.97
2019-02-24T23:23:47.260Z,13.30
2019-02-24T23:26:17.623Z,12.90
2019-02-24T23:28:48.648Z,10.13
2019-02-24T23:31:19.389Z,12.40
2019-02-24T23:33:49.805Z,13.03
2019-02-24T23:36:20.445Z,12.73
2019-02-24T23:38:50.798Z,12.20
2019-02-24T23:41:21.799Z,12.50
2019-02-24T23:43:52.378Z,12.47
2019-02-24T23:46:23.077Z,13.20
2019-02-24T23:48:54.900Z,12.10
2019-02-24T23:51:25.511Z,13.17
2019-02-24T23:53:56.028Z,17.10
2019-02-24T23:56:26.784Z,12.80
2019-02-24T23:58:57.391Z,12.80
